Time;durP1;ratioP1;P1;durP2;ratioP2;P2;SDS_P1;SDS_P2;PMS_P1;PMS_P2;Temp;Humidity;BMP_temperature;BMP_pressure;BME280_temperature;BME280_humidity;BME280_pressure;Samples;Min_cycle;Max_cycle;Signal;HPM_P1;HPM_P2
2021/11/27 00:01:12;;;;;;;28.57;16.57;;;;;;;2.23;92.82;97831.90;1801353;79;26046;-77
2021/11/27 00:03:38;;;;;;;29.30;16.23;;;;;;;2.23;92.60;97835.90;1801445;79;25428;-77
2021/11/27 00:06:05;;;;;;;27.07;15.60;;;;;;;2.21;92.53;97830.10;1801578;79;27339;-77
2021/11/27 00:08:32;;;;;;;29.15;17.60;;;;;;;2.19;92.47;97829.08;1801339;79;25545;-77
2021/11/27 00:11:00;;;;;;;28.47;16.07;;;;;;;2.18;92.31;97827.53;1762853;81;25641;-77
2021/11/27 00:13:27;;;;;;;27.75;16.65;;;;;;;2.16;92.28;97823.06;1695210;83;26556;-76
2021/11/27 00:15:54;;;;;;;28.23;17.17;;;;;;;2.12;92.11;97818.10;1769071;79;25564;-77
2021/11/27 00:18:22;;;;;;;29.60;16.62;;;;;;;2.11;92.11;97820.55;1801140;79;27332;-76
2021/11/27 00:21:00;;;;;;;28.25;16.07;;;;;;;2.08;92.00;97812.36;1799902;79;25469;-76
2021/11/27 00:23:30;;;;;;;28.02;16.00;;;;;;;2.04;91.73;97812.21;1800925;79;25639;-76
2021/11/27 00:25:58;;;;;;;25.52;15.35;;;;;;;1.98;91.43;97810.81;1800519;79;26543;-77
2021/11/27 00:28:25;;;;;;;28.65;15.93;;;;;;;1.94;91.47;97816.52;1800539;79;25731;-77
2021/11/27 00:30:56;;;;;;;26.37;15.40;;;;;;;1.89;91.56;97802.81;1801402;79;27310;-77
2021/11/27 00:33:23;;;;;;;28.17;16.25;;;;;;;1.86;91.65;97805.53;1801027;79;25379;-76
2021/11/27 00:35:50;;;;;;;27.22;15.23;;;;;;;1.82;91.48;97800.60;1801980;79;25660;-75
2021/11/27 00:38:17;;;;;;;26.35;16.15;;;;;;;1.77;91.41;97799.42;1800525;79;26010;-76
2021/11/27 00:40:45;;;;;;;28.23;15.00;;;;;;;1.75;91.53;97792.81;1801480;79;25737;-76
2021/11/27 00:43:13;;;;;;;28.67;15.90;;;;;;;1.71;91.49;97794.55;1800335;79;28112;-76
2021/11/27 00:45:43;;;;;;;26.27;15.70;;;;;;;1.68;91.41;97789.28;1800645;79;25444;-76
2021/11/27 00:48:13;;;;;;;27.02;15.78;;;;;;;1.64;91.39;97776.35;1801142;79;25606;-75
2021/11/27 00:50:45;;;;;;;28.80;16.15;;;;;;;1.62;91.34;97783.87;1795975;79;25932;-75
2021/11/27 00:53:12;;;;;;;26.90;15.50;;;;;;;1.57;91.27;97774.70;1763010;81;25719;-75
2021/11/27 00:55:40;;;;;;;26.87;15.98;;;;;;;1.54;91.28;97771.31;1764447;81;27303;-75
2021/11/27 00:58:07;;;;;;;26.27;15.05;;;;;;;1.51;91.31;97770.05;1764054;80;25634;-75
2021/11/27 01:00:39;;;;;;;27.55;16.23;;;;;;;1.47;91.34;97764.55;1743131;81;25494;-75
2021/11/27 01:03:10;;;;;;;28.47;15.25;;;;;;;1.45;91.49;97761.42;1763397;80;25920;-75
2021/11/27 01:05:39;;;;;;;30.43;16.23;;;;;;;1.42;91.52;97759.38;1742641;81;25659;-75
2021/11/27 01:08:06;;;;;;;25.55;15.15;;;;;;;1.40;91.51;97754.91;1764622;81;28061;-75
2021/11/27 01:10:44;;;;;;;22.50;14.07;;;;;;;1.37;91.44;97750.75;1764149;81;25575;-75
2021/11/27 01:13:10;;;;;;;26.65;15.35;;;;;;;1.33;91.33;97745.79;1761700;81;25643;-75
2021/11/27 01:15:37;;;;;;;25.55;14.58;;;;;;;1.29;91.46;97738.44;1764682;81;26450;-75
2021/11/27 01:18:05;;;;;;;27.22;14.95;;;;;;;1.25;91.31;97738.81;1764913;80;25637;-74
2021/11/27 01:20:40;;;;;;;24.15;14.80;;;;;;;1.22;91.42;97731.98;1763646;81;27401;-74
2021/11/27 01:23:08;;;;;;;24.12;14.75;;;;;;;1.21;91.49;97733.88;1764489;80;25696;-74
2021/11/27 01:25:36;;;;;;;23.32;14.35;;;;;;;1.17;91.59;97723.59;1765560;80;25435;-74
2021/11/27 01:28:04;;;;;;;23.12;13.93;;;;;;;1.16;91.64;97723.89;1767507;80;25922;-74
2021/11/27 01:30:31;;;;;;;22.05;14.15;;;;;;;1.14;91.68;97720.20;1766821;80;25149;-74
2021/11/27 01:32:58;;;;;;;23.22;14.78;;;;;;;1.12;91.73;97719.73;1765004;81;27334;-74
2021/11/27 01:35:24;;;;;;;22.75;13.05;;;;;;;1.10;91.75;97712.61;1763081;80;25452;-74
2021/11/27 01:37:51;;;;;;;23.50;13.35;;;;;;;1.06;91.69;97715.11;1766358;81;25729;-74
2021/11/27 01:40:23;;;;;;;19.75;12.85;;;;;;;1.05;91.65;97708.77;1768076;79;25918;-74
2021/11/27 01:42:51;;;;;;;23.27;12.98;;;;;;;1.02;91.65;97704.86;1764948;81;25411;-74
2021/11/27 01:45:20;;;;;;;21.40;12.20;;;;;;;1.01;91.77;97700.61;1764545;80;27285;-73
2021/11/27 01:47:51;;;;;;;19.40;11.90;;;;;;;1.00;91.81;97691.59;1764747;81;25692;-73
2021/11/27 01:50:19;;;;;;;19.75;12.73;;;;;;;1.00;91.91;97703.58;1763862;81;25692;-74
2021/11/27 01:52:46;;;;;;;19.15;12.33;;;;;;;0.98;91.92;97701.78;1790628;80;25996;-74
2021/11/27 01:55:14;;;;;;;17.02;11.10;;;;;;;0.97;92.00;97698.87;1793801;80;25737;-74
2021/11/27 01:57:41;;;;;;;19.12;11.48;;;;;;;0.96;91.93;97702.64;1793838;80;27935;-74
2021/11/27 02:00:13;;;;;;;16.82;11.48;;;;;;;0.95;92.05;97696.52;1792913;80;25541;-74
2021/11/27 02:02:40;;;;;;;18.15;11.90;;;;;;;0.91;92.09;97696.34;1794025;79;25395;-75
2021/11/27 02:05:09;;;;;;;18.95;11.80;;;;;;;0.93;92.11;97696.05;1793052;80;26004;-75
2021/11/27 02:07:37;;;;;;;18.45;11.78;;;;;;;0.92;92.24;97697.16;1731369;82;25714;-74
2021/11/27 02:10:07;;;;;;;15.25;10.58;;;;;;;0.92;92.37;97685.95;1794113;80;27342;-74
2021/11/27 02:12:34;;;;;;;17.23;10.95;;;;;;;0.92;92.33;97686.50;1744937;82;25564;-74
2021/11/27 02:15:00;;;;;;;17.87;10.80;;;;;;;0.91;92.40;97681.70;1796693;79;25661;-74
2021/11/27 02:17:27;;;;;;;17.92;10.98;;;;;;;0.91;92.36;97679.05;1795874;79;25663;-74
2021/11/27 02:19:54;;;;;;;18.57;11.00;;;;;;;0.92;92.42;97675.86;1785878;80;25401;-75
2021/11/27 02:22:21;;;;;;;17.27;9.95;;;;;;;0.92;92.57;97682.52;1785622;80;27284;-75
2021/11/27 02:24:49;;;;;;;16.75;10.78;;;;;;;0.92;92.51;97682.52;1763932;80;25660;-75
2021/11/27 02:27:18;;;;;;;15.80;10.40;;;;;;;0.91;92.45;97670.28;1785749;80;25538;-75
2021/11/27 02:29:45;;;;;;;19.00;11.03;;;;;;;0.90;92.54;97677.50;1737979;81;26053;-75
2021/11/27 02:32:12;;;;;;;13.50;9.60;;;;;;;0.90;92.40;97676.69;1729781;83;25726;-75
2021/11/27 02:34:39;;;;;;;16.10;10.53;;;;;;;0.89;92.47;97677.80;1729806;83;27909;-75
2021/11/27 02:37:07;;;;;;;15.58;10.25;;;;;;;0.89;92.61;97672.48;1729668;82;25600;-75
2021/11/27 02:39:35;;;;;;;15.83;10.43;;;;;;;0.89;92.59;97669.27;1729829;83;25586;-75
2021/11/27 02:42:04;;;;;;;19.65;11.12;;;;;;;0.89;92.60;97669.27;1729753;83;26031;-75
2021/11/27 02:44:33;;;;;;;17.75;10.80;;;;;;;0.90;92.69;97670.04;1729772;83;25511;-75
2021/11/27 02:47:01;;;;;;;16.75;11.15;;;;;;;0.91;92.74;97669.73;1729913;83;27330;-75
2021/11/27 02:49:28;;;;;;;17.23;10.75;;;;;;;0.91;92.76;97664.96;1729625;83;25706;-75
2021/11/27 02:51:55;;;;;;;17.67;11.88;;;;;;;0.91;92.75;97659.64;1730664;82;25639;-75
2021/11/27 02:54:22;;;;;;;18.32;11.57;;;;;;;0.91;92.80;97665.73;1735596;82;25906;-74
2021/11/27 02:56:48;;;;;;;19.23;11.60;;;;;;;0.92;92.69;97670.53;1736669;82;25429;-75
2021/11/27 02:59:22;;;;;;;15.68;10.98;;;;;;;0.91;92.83;97664.96;1736576;82;27361;-75
2021/11/27 03:01:53;;;;;;;17.67;10.58;;;;;;;0.91;92.65;97664.41;1736694;82;25394;-75
2021/11/27 03:04:21;;;;;;;19.90;12.03;;;;;;;0.90;92.62;97660.20;1736696;82;25677;-75
2021/11/27 03:06:48;;;;;;;17.75;11.50;;;;;;;0.90;92.67;97655.40;1736572;82;26375;-75
2021/11/27 03:09:16;;;;;;;19.70;11.80;;;;;;;0.89;92.62;97656.51;1736778;82;25627;-75
2021/11/27 03:11:50;;;;;;;20.67;12.70;;;;;;;0.89;92.77;97657.84;1713940;82;27406;-75
2021/11/27 03:14:19;;;;;;;19.02;12.07;;;;;;;0.87;92.70;97659.48;1736444;82;26214;-76
2021/11/27 03:16:47;;;;;;;17.23;12.00;;;;;;;0.87;92.62;97663.47;1736885;82;25408;-76
2021/11/27 03:19:14;;;;;;;19.30;12.28;;;;;;;0.85;92.67;97656.34;1736538;82;25930;-76
2021/11/27 03:21:42;;;;;;;20.30;12.73;;;;;;;0.85;92.76;97660.34;1736449;82;25742;-75
2021/11/27 03:24:09;;;;;;;23.67;12.20;;;;;;;0.84;92.77;97657.98;1736550;82;27338;-75
2021/11/27 03:26:35;;;;;;;20.65;13.13;;;;;;;0.84;92.89;97660.64;1736481;82;25473;-75
2021/11/27 03:29:03;;;;;;;29.30;16.37;;;;;;;0.84;92.94;97660.64;1736454;82;25461;-75
2021/11/27 03:31:30;;;;;;;20.23;13.08;;;;;;;0.84;92.92;97658.76;1736502;82;25914;-75
2021/11/27 03:33:56;;;;;;;18.35;12.50;;;;;;;0.82;92.96;97655.63;1736651;82;25405;-75
2021/11/27 03:36:24;;;;;;;17.73;12.00;;;;;;;0.84;92.99;97655.33;1736347;82;27890;-75
2021/11/27 03:38:51;;;;;;;18.95;11.22;;;;;;;0.81;92.87;97653.27;1736506;82;25631;-76
2021/11/27 03:41:18;;;;;;;18.87;11.78;;;;;;;0.81;92.88;97646.62;1736527;82;25624;-75
2021/11/27 03:43:46;;;;;;;17.90;11.60;;;;;;;0.80;92.95;97654.36;1736472;82;26461;-75
2021/11/27 03:46:13;;;;;;;17.17;11.05;;;;;;;0.79;92.95;97654.91;1736549;82;25687;-75
2021/11/27 03:48:45;;;;;;;20.72;11.63;;;;;;;0.80;92.99;97657.02;1736580;82;27982;-73
2021/11/27 03:51:17;;;;;;;20.82;11.60;;;;;;;0.80;93.12;97657.82;1736311;82;25766;-73
2021/11/27 03:53:45;;;;;;;16.40;11.05;;;;;;;0.80;93.16;97661.81;1736667;82;25664;-73
2021/11/27 03:56:17;;;;;;;18.98;12.03;;;;;;;0.81;93.29;97666.58;1736419;82;25928;-74
2021/11/27 03:58:44;;;;;;;18.37;10.68;;;;;;;0.81;93.27;97673.23;1736532;82;25414;-74
2021/11/27 04:01:14;;;;;;;19.20;11.35;;;;;;;0.80;93.25;97672.45;1736484;82;27361;-75
2021/11/27 04:03:43;;;;;;;16.48;9.98;;;;;;;0.81;93.26;97670.57;1736530;82;25630;-75
2021/11/27 04:06:10;;;;;;;16.73;9.68;;;;;;;0.80;93.22;97667.66;1736497;82;25282;-74
2021/11/27 04:08:37;;;;;;;15.72;10.00;;;;;;;0.80;93.27;97675.12;1736519;82;25978;-74
2021/11/27 04:11:04;;;;;;;14.85;10.05;;;;;;;0.79;93.36;97681.52;1736600;82;25566;-74
2021/11/27 04:13:31;;;;;;;17.37;10.63;;;;;;;0.81;93.44;97681.22;1736378;82;27328;-74
2021/11/27 04:15:58;;;;;;;17.17;11.83;;;;;;;0.81;93.47;97678.55;1736314;82;25640;-75
2021/11/27 04:18:24;;;;;;;16.27;10.05;;;;;;;0.81;93.43;97675.34;1736548;82;25627;-75
2021/11/27 04:20:52;;;;;;;19.77;10.78;;;;;;;0.81;93.42;97673.23;1736452;82;26019;-75
2021/11/27 04:23:19;;;;;;;16.32;10.13;;;;;;;0.81;93.54;97675.89;1708155;84;25674;-74
2021/11/27 04:25:46;;;;;;;17.50;10.72;;;;;;;0.80;93.62;97676.45;1736825;82;27408;-74
2021/11/27 04:28:14;;;;;;;16.23;10.30;;;;;;;0.81;93.47;97684.66;1774086;80;25804;-74
2021/11/27 04:30:41;;;;;;;16.30;10.53;;;;;;;0.81;93.56;97684.66;1748606;80;25654;-74
2021/11/27 04:33:09;;;;;;;17.45;10.80;;;;;;;0.81;93.60;97683.87;1748435;80;26286;-74
2021/11/27 04:35:37;;;;;;;17.70;10.48;;;;;;;0.80;93.59;97691.08;1774236;80;25582;-74
2021/11/27 04:38:06;;;;;;;16.65;10.78;;;;;;;0.80;93.64;97691.08;1774362;80;27399;-74
2021/11/27 04:40:35;;;;;;;18.42;11.68;;;;;;;0.80;93.66;97690.28;1774389;80;25672;-74
2021/11/27 04:43:02;;;;;;;16.97;11.63;;;;;;;0.79;93.66;97696.16;1774428;80;25991;-74
2021/11/27 04:45:30;;;;;;;19.05;11.48;;;;;;;0.76;93.51;97698.66;1774311;80;26610;-75
2021/11/27 04:47:57;;;;;;;19.17;12.00;;;;;;;0.75;93.62;97701.87;1774445;80;25617;-75
2021/11/27 04:50:25;;;;;;;18.10;11.60;;;;;;;0.73;93.51;97709.34;1774097;80;27506;-75
2021/11/27 04:52:52;;;;;;;17.62;11.68;;;;;;;0.71;93.67;97712.31;1774278;80;25669;-76
2021/11/27 04:55:19;;;;;;;18.60;11.20;;;;;;;0.69;93.53;97714.50;1807767;79;25475;-76
2021/11/27 04:57:46;;;;;;;20.12;12.43;;;;;;;0.67;93.59;97716.69;1812366;79;25965;-76
2021/11/27 05:00:27;;;;;;;20.25;11.95;;;;;;;0.67;93.78;97719.91;1802931;79;25665;-75
2021/11/27 05:02:54;;;;;;;15.98;10.72;;;;;;;0.67;93.81;97726.56;1801782;79;27316;-75
2021/11/27 05:05:23;;;;;;;17.60;10.75;;;;;;;0.63;93.72;97723.73;1778631;79;25721;-76
2021/11/27 05:07:51;;;;;;;16.50;10.93;;;;;;;0.62;93.71;97729.35;1801827;79;25565;-75
2021/11/27 05:10:17;;;;;;;18.75;11.05;;;;;;;0.61;93.94;97727.77;1801516;79;25973;-76
2021/11/27 05:12:44;;;;;;;17.55;11.22;;;;;;;0.61;93.99;97726.44;1801609;79;25782;-76
2021/11/27 05:15:11;;;;;;;19.48;11.68;;;;;;;0.60;94.12;97736.30;1801575;79;27330;-76
2021/11/27 05:17:38;;;;;;;16.82;10.95;;;;;;;0.60;94.17;97733.64;1801528;79;25492;-75
2021/11/27 05:20:07;;;;;;;18.05;11.88;;;;;;;0.59;94.09;97737.38;1801506;79;25605;-75
2021/11/27 05:22:34;;;;;;;19.70;12.13;;;;;;;0.60;94.24;97739.52;1801739;79;26590;-75
2021/11/27 05:25:01;;;;;;;17.80;11.60;;;;;;;0.60;94.27;97745.61;1801686;79;25392;-75
2021/11/27 05:27:29;;;;;;;19.20;11.38;;;;;;;0.62;94.38;97739.99;1801445;79;27309;-75
2021/11/27 05:29:56;;;;;;;18.50;11.68;;;;;;;0.61;94.29;97743.17;1801575;79;25625;-75
2021/11/27 05:32:37;;;;;;;23.52;13.08;;;;;;;0.61;94.39;97738.41;1801536;79;25536;-75
2021/11/27 05:34:55;;;;;;;19.73;12.30;;;;;;;0.60;94.38;97741.62;1799693;79;26385;-75
2021/11/27 05:37:22;;;;;;;22.70;12.82;;;;;;;0.59;94.33;97741.92;1801589;79;25553;-75
2021/11/27 05:39:50;;;;;;;25.77;14.25;;;;;;;0.59;94.31;97746.69;1801666;79;27421;-75
2021/11/27 05:42:18;;;;;;;26.07;13.90;;;;;;;0.60;94.47;97746.17;1801376;79;25690;-75
2021/11/27 05:44:47;;;;;;;28.12;14.93;;;;;;;0.61;94.52;97743.73;1801722;79;25751;-75
2021/11/27 05:47:14;;;;;;;33.10;17.42;;;;;;;0.61;94.57;97744.51;1801697;79;25978;-75
2021/11/27 05:49:41;;;;;;;30.08;18.48;;;;;;;0.62;94.62;97747.97;1801618;79;25493;-75
2021/11/27 05:52:08;;;;;;;31.82;17.23;;;;;;;0.62;94.62;97751.41;1801597;79;27329;-75
2021/11/27 05:54:35;;;;;;;32.63;16.67;;;;;;;0.63;94.65;97756.17;1801400;79;25384;-75
2021/11/27 05:57:02;;;;;;;33.60;17.23;;;;;;;0.65;94.72;97759.34;1801313;79;25447;-75
2021/11/27 05:59:29;;;;;;;26.55;15.38;;;;;;;0.64;94.65;97763.86;1801411;79;25928;-75
2021/11/27 06:01:56;;;;;;;30.82;16.45;;;;;;;0.65;94.75;97774.75;1778996;79;25455;-75
2021/11/27 06:04:23;;;;;;;30.80;15.83;;;;;;;0.66;94.73;97781.63;1801290;79;27125;-76
2021/11/27 06:06:50;;;;;;;31.62;17.87;;;;;;;0.67;94.81;97786.42;1778908;79;25694;-75
2021/11/27 06:09:17;;;;;;;33.00;18.02;;;;;;;0.65;94.60;97785.39;1801442;79;25777;-75
2021/11/27 06:11:44;;;;;;;35.10;18.40;;;;;;;0.62;94.52;97792.64;1801342;79;25909;-75
2021/11/27 06:14:11;;;;;;;32.65;18.73;;;;;;;0.61;94.58;97791.06;1801409;79;25628;-75
2021/11/27 06:16:39;;;;;;;31.57;17.92;;;;;;;0.61;94.61;97803.03;1801365;79;27911;-75
2021/11/27 06:19:05;;;;;;;28.62;16.67;;;;;;;0.60;94.72;97804.14;1801286;79;25591;-73
2021/11/27 06:21:32;;;;;;;30.90;16.37;;;;;;;0.59;94.62;97813.20;1801409;79;25558;-74
2021/11/27 06:23:59;;;;;;;31.52;16.37;;;;;;;0.58;94.62;97818.30;1801414;79;25993;-74
2021/11/27 06:26:26;;;;;;;25.72;15.05;;;;;;;0.57;94.58;97824.70;1801428;79;25633;-74
2021/11/27 06:28:52;;;;;;;28.42;15.53;;;;;;;0.55;94.60;97820.23;1801351;79;28092;-74
2021/11/27 06:31:19;;;;;;;26.23;14.60;;;;;;;0.54;94.75;97830.06;1801335;79;25670;-74
2021/11/27 06:33:46;;;;;;;24.72;14.25;;;;;;;0.53;94.76;97837.05;1801453;79;25698;-75
2021/11/27 06:36:12;;;;;;;21.90;13.18;;;;;;;0.53;94.94;97848.46;1801187;79;25928;-75
2021/11/27 06:38:39;;;;;;;23.67;14.07;;;;;;;0.55;95.06;97850.82;1801481;79;25377;-74
2021/11/27 06:41:06;;;;;;;24.47;13.95;;;;;;;0.54;94.98;97853.23;1801467;79;28016;-74
2021/11/27 06:43:33;;;;;;;26.07;14.70;;;;;;;0.54;94.99;97858.55;1801167;78;25748;-74
2021/11/27 06:46:00;;;;;;;25.95;13.68;;;;;;;0.52;95.03;97860.18;1801483;78;25532;-75
2021/11/27 06:48:29;;;;;;;25.88;14.23;;;;;;;0.51;95.00;97876.44;1801382;79;25969;-75
2021/11/27 06:50:56;;;;;;;24.70;14.13;;;;;;;0.48;94.97;97881.05;1801665;79;25384;-75
2021/11/27 06:53:23;;;;;;;25.70;13.43;;;;;;;0.46;95.08;97889.33;1778399;79;27420;-74
2021/11/27 06:55:50;;;;;;;26.50;13.70;;;;;;;0.45;95.17;97890.41;1801524;79;25455;-74
2021/11/27 06:58:16;;;;;;;22.52;13.08;;;;;;;0.45;95.30;97892.28;1801327;79;25608;-74
2021/11/27 07:00:43;;;;;;;22.10;13.40;;;;;;;0.44;95.31;97888.82;1801397;79;25979;-74
2021/11/27 07:03:09;;;;;;;23.20;13.50;;;;;;;0.43;95.38;97889.15;1779065;79;25469;-74
2021/11/27 07:05:36;;;;;;;22.98;13.13;;;;;;;0.43;95.47;97886.48;1801286;79;27319;-74
2021/11/27 07:08:02;;;;;;;22.77;13.20;;;;;;;0.43;95.47;97894.47;1801316;79;25602;-74
2021/11/27 07:10:29;;;;;;;22.13;12.53;;;;;;;0.43;95.54;97897.91;1801390;79;25425;-74
2021/11/27 07:12:58;;;;;;;22.10;12.35;;;;;;;0.45;95.69;97905.03;1778829;79;26063;-74
2021/11/27 07:15:24;;;;;;;24.80;12.93;;;;;;;0.46;95.82;97915.92;1801214;79;25652;-74
2021/11/27 07:17:50;;;;;;;23.15;12.50;;;;;;;0.47;95.81;97918.03;1801437;79;28259;-74
2021/11/27 07:20:17;;;;;;;22.13;12.43;;;;;;;0.47;95.77;97927.34;1797516;79;25555;-74
2021/11/27 07:22:43;;;;;;;23.15;12.95;;;;;;;0.47;95.95;97937.44;1801396;79;26271;-74
2021/11/27 07:25:10;;;;;;;21.85;12.88;;;;;;;0.44;95.89;97930.59;1801300;79;25983;-74
2021/11/27 07:27:37;;;;;;;21.55;12.70;;;;;;;0.44;95.88;97939.91;1801315;79;25574;-74
2021/11/27 07:30:06;;;;;;;25.27;11.93;;;;;;;0.44;96.07;97947.89;1801343;79;28013;-74
2021/11/27 07:32:34;;;;;;;24.02;13.58;;;;;;;0.43;96.05;97942.34;1801463;79;25431;-74
2021/11/27 07:35:00;;;;;;;25.77;12.78;;;;;;;0.43;96.09;97953.76;1778801;79;25498;-74
2021/11/27 07:37:27;;;;;;;23.32;13.10;;;;;;;0.43;96.13;97952.43;1798678;79;25947;-74
2021/11/27 07:39:54;;;;;;;23.40;13.10;;;;;;;0.44;96.24;97951.88;1798614;77;25778;-74
2021/11/27 07:42:21;;;;;;;24.40;13.65;;;;;;;0.44;96.22;97951.33;1771945;79;28120;-74
2021/11/27 07:44:48;;;;;;;22.22;13.65;;;;;;;0.45;96.22;97957.45;1785292;80;25819;-74
2021/11/27 07:47:15;;;;;;;24.43;13.95;;;;;;;0.44;96.39;97963.30;1762221;80;25401;-73
2021/11/27 07:49:41;;;;;;;20.77;12.33;;;;;;;0.44;96.49;97962.52;1774402;79;25972;-73
2021/11/27 07:52:08;;;;;;;22.73;12.82;;;;;;;0.43;96.50;97959.08;1721286;80;25721;-74
2021/11/27 07:54:34;;;;;;;21.50;12.63;;;;;;;0.43;96.28;97968.94;1782745;80;27307;-74
2021/11/27 07:57:01;;;;;;;26.27;13.65;;;;;;;0.42;96.37;97977.99;1733269;82;25828;-74
2021/11/27 07:59:29;;;;;;;24.65;14.33;;;;;;;0.41;96.41;97982.53;1761543;80;25726;-74
2021/11/27 08:01:56;;;;;;;24.37;13.58;;;;;;;0.40;96.52;97988.92;1751672;80;26158;-75
2021/11/27 08:04:22;;;;;;;27.10;14.85;;;;;;;0.42;96.57;97981.43;1767619;80;25786;-75
2021/11/27 08:06:49;;;;;;;23.47;13.98;;;;;;;0.43;96.65;97998.20;1737107;82;27304;-75
2021/11/27 08:09:15;;;;;;;26.30;14.87;;;;;;;0.44;96.58;98002.41;1740541;81;25790;-74
2021/11/27 08:11:42;;;;;;;30.65;16.97;;;;;;;0.47;96.76;98001.83;1738410;81;25825;-74
2021/11/27 08:14:08;;;;;;;33.05;17.75;;;;;;;0.46;96.70;98002.90;1742791;81;26490;-74
2021/11/27 08:16:35;;;;;;;38.67;18.23;;;;;;;0.45;96.79;98003.45;1760496;80;25841;-74
2021/11/27 08:19:02;;;;;;;35.33;18.15;;;;;;;0.46;96.86;98008.22;1726566;80;27284;-75
2021/11/27 08:21:29;;;;;;;34.90;18.62;;;;;;;0.49;96.97;98000.42;1708896;82;25660;-75
2021/11/27 08:23:58;;;;;;;35.75;19.87;;;;;;;0.52;97.20;97997.72;1769575;80;25830;-74
2021/11/27 08:26:25;;;;;;;40.70;19.52;;;;;;;0.58;97.23;98009.04;1674129;82;25833;-75
2021/11/27 08:28:52;;;;;;;39.55;20.27;;;;;;;0.62;97.24;98003.38;1723215;83;25771;-74
2021/11/27 08:31:20;;;;;;;40.45;20.17;;;;;;;0.61;97.12;98006.56;1727220;82;27306;-74
2021/11/27 08:33:47;;;;;;;38.35;19.85;;;;;;;0.61;96.88;98001.24;1726767;82;25616;-75
2021/11/27 08:36:13;;;;;;;40.45;19.37;;;;;;;0.62;97.17;97986.86;1726321;82;25709;-75
2021/11/27 08:38:40;;;;;;;35.13;19.05;;;;;;;0.72;97.54;97991.97;1683872;85;26476;-75
2021/11/27 08:41:08;;;;;;;38.70;19.35;;;;;;;0.80;97.78;97991.80;1724626;82;25781;-75
2021/11/27 08:43:37;;;;;;;34.48;18.70;;;;;;;0.87;97.98;97994.03;1727173;82;27353;-75
2021/11/27 08:46:04;;;;;;;34.38;18.75;;;;;;;0.93;97.74;97994.16;1720436;82;25380;-74
2021/11/27 08:48:36;;;;;;;36.48;19.65;;;;;;;0.99;97.63;98003.62;1664683;86;25712;-74
2021/11/27 08:51:00;;;;;;;34.15;20.25;;;;;;;1.01;97.22;98016.63;1665102;86;26063;-74
2021/11/27 08:53:27;;;;;;;32.93;18.37;;;;;;;1.02;97.18;98011.01;1664945;86;25473;-76
2021/11/27 08:55:54;;;;;;;36.45;18.77;;;;;;;1.03;97.23;98024.55;1672262;85;27469;-75
2021/11/27 08:58:21;;;;;;;37.13;19.65;;;;;;;1.03;96.96;98029.88;1683019;83;25567;-74
2021/11/27 09:00:48;;;;;;;35.08;19.23;;;;;;;1.01;96.61;98024.63;1761348;81;25664;-74
2021/11/27 09:03:15;;;;;;;34.83;18.37;;;;;;;1.01;96.67;98027.28;1760852;81;25936;-74
2021/11/27 09:05:41;;;;;;;40.05;20.12;;;;;;;1.03;96.83;98033.86;1761371;81;25417;-75
2021/11/27 09:08:08;;;;;;;36.17;19.52;;;;;;;1.02;96.76;98043.48;1761215;81;27331;-75
2021/11/27 09:10:36;;;;;;;32.30;18.57;;;;;;;1.00;96.63;98039.00;1761100;81;25534;-75
2021/11/27 09:13:04;;;;;;;33.90;18.45;;;;;;;0.98;96.60;98046.52;1761283;81;25703;-75
2021/11/27 09:15:31;;;;;;;32.15;17.30;;;;;;;0.95;96.61;98050.55;1761300;81;25927;-75
2021/11/27 09:17:57;;;;;;;34.60;18.10;;;;;;;0.95;96.56;98057.75;1761048;81;26503;-75
2021/11/27 09:20:25;;;;;;;38.28;18.98;;;;;;;0.93;96.69;98063.38;1761304;81;27323;-75
2021/11/27 09:22:52;;;;;;;34.75;18.73;;;;;;;0.92;96.78;98068.47;1761276;81;25936;-74
2021/11/27 09:25:19;;;;;;;33.78;18.77;;;;;;;0.91;96.71;98072.20;1761239;81;25441;-74
2021/11/27 09:27:45;;;;;;;37.78;19.52;;;;;;;0.90;96.79;98074.62;1761473;81;25947;-74
2021/11/27 09:30:12;;;;;;;37.48;19.32;;;;;;;0.89;96.89;98071.73;1760831;81;25759;-74
2021/11/27 09:32:40;;;;;;;38.13;19.73;;;;;;;0.84;97.02;98069.95;1761006;81;27289;-74
2021/11/27 09:35:08;;;;;;;43.13;19.95;;;;;;;0.83;96.95;98074.24;1760997;81;25749;-74
2021/11/27 09:37:34;;;;;;;49.73;24.20;;;;;;;0.84;97.08;98069.95;1761094;81;25629;-74
2021/11/27 09:40:05;;;;;;;46.90;24.72;;;;;;;0.86;97.23;98074.43;1740805;81;26031;-74
2021/11/27 09:42:33;;;;;;;46.30;23.22;;;;;;;0.88;97.35;98078.13;1760336;81;25764;-74
2021/11/27 09:45:03;;;;;;;46.18;22.98;;;;;;;0.88;97.32;98074.13;1770077;80;27327;-75
2021/11/27 09:47:32;;;;;;;56.10;26.23;;;;;;;0.89;97.37;98074.39;1754891;80;25840;-75
2021/11/27 09:50:01;;;;;;;54.83;25.40;;;;;;;0.90;97.45;98082.08;1776736;80;25626;-75
2021/11/27 09:52:27;;;;;;;;;;;;;;;0.89;97.43;98085.04;1779165;80;25889;-74
2021/11/27 09:54:54;;;;;;;55.58;25.65;;;;;;;0.87;97.36;98091.98;1770143;79;25887;-75
2021/11/27 09:57:21;;;;;;;51.00;24.05;;;;;;;0.85;97.56;98088.84;1767598;81;27305;-74
2021/11/27 09:59:47;;;;;;;56.70;25.48;;;;;;;0.83;97.42;98098.20;1769194;81;25591;-74
2021/11/27 10:02:17;;;;;;;58.13;25.48;;;;;;;0.83;97.44;98084.89;1769652;81;25580;-75
2021/11/27 10:04:52;;;;;;;55.80;26.35;;;;;;;0.82;97.57;98085.44;1747244;81;26718;-72
2021/11/27 10:07:21;;;;;;;51.13;25.68;;;;;;;0.86;97.69;98088.29;1732859;82;25688;-73
2021/11/27 10:09:51;;;;;;;65.32;28.23;;;;;;;0.87;97.64;98096.50;1747171;81;28062;-75
2021/11/27 10:12:22;;;;;;;57.15;26.75;;;;;;;0.87;97.84;98089.84;1733005;82;25770;-73
2021/11/27 10:14:49;;;;;;;62.10;29.20;;;;;;;0.86;97.99;98086.95;1769705;80;25596;-72
2021/11/27 10:17:18;;;;;;;67.20;28.50;;;;;;;0.84;97.86;98097.13;1732697;82;25888;-72
2021/11/27 10:19:49;;;;;;;63.95;27.17;;;;;;;0.84;97.89;98109.09;1769921;81;25683;-72
2021/11/27 10:22:23;;;;;;;64.00;28.45;;;;;;;0.82;97.75;98113.91;1769865;80;27311;-74
2021/11/27 10:24:51;;;;;;;56.88;26.17;;;;;;;0.82;97.91;98112.58;1729522;82;25751;-72
2021/11/27 10:27:25;;;;;;;56.83;26.15;;;;;;;0.84;98.04;98117.08;1732916;82;25601;-72
2021/11/27 10:30:11;;;;;;;60.20;27.27;;;;;;;0.85;98.11;98119.97;1769839;80;25895;-72
2021/11/27 10:32:46;;;;;;;63.42;26.70;;;;;;;0.86;98.20;98125.55;1770198;80;25688;-73
2021/11/27 10:35:17;;;;;;;57.30;25.37;;;;;;;0.84;98.03;98131.72;1769707;80;26847;-74
2021/11/27 10:37:55;;;;;;;58.73;27.02;;;;;;;0.86;98.08;98126.33;1769723;80;25710;-75
2021/11/27 10:40:29;;;;;;;57.15;25.62;;;;;;;0.86;98.35;98131.66;1742600;81;25715;-75
2021/11/27 10:43:06;;;;;;;62.20;28.15;;;;;;;0.85;98.11;98135.42;1756462;79;26044;-76
2021/11/27 10:45:36;;;;;;;52.78;25.35;;;;;;;0.87;98.20;98145.22;1772451;79;25768;-76
2021/11/27 10:48:18;;;;;;;57.17;26.90;;;;;;;0.88;98.18;98141.45;1694352;83;28262;-74
2021/11/27 10:50:52;;;;;;;56.85;24.90;;;;;;;0.90;98.44;98143.82;1693333;84;25532;-75
2021/11/27 10:53:22;;;;;;;51.35;24.63;;;;;;;0.92;98.35;98154.98;1675693;84;25763;-75
2021/11/27 10:55:48;;;;;;;59.60;26.37;;;;;;;0.95;98.38;98152.26;1660804;85;25926;-75
2021/11/27 10:58:16;;;;;;;57.75;25.43;;;;;;;0.95;98.39;98150.92;1660463;85;25592;-74
2021/11/27 11:00:49;;;;;;;53.55;25.90;;;;;;;0.94;98.25;98167.45;1675686;85;27643;-75
2021/11/27 11:03:35;;;;;;;52.27;24.25;;;;;;;0.96;98.24;98172.48;1678756;85;25634;-75
2021/11/27 11:06:21;;;;;;;50.73;23.77;;;;;;;0.96;98.26;98173.27;1677861;85;25885;-74
2021/11/27 11:08:53;;;;;;;51.68;23.65;;;;;;;0.96;98.20;98179.14;1667880;85;25697;-75
2021/11/27 11:11:25;;;;;;;52.95;24.12;;;;;;;1.00;98.33;98177.45;1657648;85;25458;-75
2021/11/27 11:14:00;;;;;;;52.27;25.23;;;;;;;1.00;98.45;98177.45;1707787;84;27329;-74
2021/11/27 11:16:31;;;;;;;50.40;21.68;;;;;;;1.00;98.19;98187.54;1706734;81;25862;-74
2021/11/27 11:19:20;;;;;;;51.75;22.55;;;;;;;1.02;98.24;98185.39;1724005;82;25787;-75
2021/11/27 11:22:13;;;;;;;48.92;22.10;;;;;;;1.01;98.36;98189.13;1703085;82;25936;-75
2021/11/27 11:24:44;;;;;;;45.52;21.10;;;;;;;0.99;98.07;98200.63;1730631;82;25946;-75
2021/11/27 11:27:11;;;;;;;49.98;21.33;;;;;;;1.01;98.20;98194.45;1686783;83;27342;-75
2021/11/27 11:29:50;;;;;;;44.53;20.37;;;;;;;1.01;98.14;98203.77;1700782;84;25730;-75
2021/11/27 11:32:24;;;;;;;29.82;14.23;;;;;;;1.00;98.24;98203.52;1686869;84;25393;-75